sensor_id;sensor_type;location;lat;lon;timestamp;pressure;altitude;pressure_sealevel;temperature;humidity
74794;BME280;63320;50.768;6.724;2024-02-21T00:02:18;101032.34;;;8.37;84.55
74794;BME280;63320;50.768;6.724;2024-02-21T00:04:44;101029.78;;;8.34;84.34
74794;BME280;63320;50.768;6.724;2024-02-21T00:07:09;101031.31;;;8.42;84.14
74794;BME280;63320;50.768;6.724;2024-02-21T00:09:34;101033.69;;;8.51;83.88
74794;BME280;63320;50.768;6.724;2024-02-21T00:12:00;101028.63;;;8.45;84.37
74794;BME280;63320;50.768;6.724;2024-02-21T00:14:25;101028.44;;;8.51;84.18
74794;BME280;63320;50.768;6.724;2024-02-21T00:16:51;101032.75;;;8.54;83.90
74794;BME280;63320;50.768;6.724;2024-02-21T00:19:17;101031.00;;;8.53;83.60
74794;BME280;63320;50.768;6.724;2024-02-21T00:21:43;101035.69;;;8.42;84.03
74794;BME280;63320;50.768;6.724;2024-02-21T00:24:08;101023.94;;;8.56;83.73
74794;BME280;63320;50.768;6.724;2024-02-21T00:26:34;101018.66;;;8.58;83.83
74794;BME280;63320;50.768;6.724;2024-02-21T00:28:59;101014.91;;;8.67;83.49
74794;BME280;63320;50.768;6.724;2024-02-21T00:31:24;101011.44;;;8.66;83.78
74794;BME280;63320;50.768;6.724;2024-02-21T00:33:50;101008.69;;;8.71;83.74
74794;BME280;63320;50.768;6.724;2024-02-21T00:36:16;101000.84;;;8.71;83.61
74794;BME280;63320;50.768;6.724;2024-02-21T00:38:42;101004.25;;;8.74;83.71
74794;BME280;63320;50.768;6.724;2024-02-21T00:41:07;101001.09;;;8.62;83.98
74794;BME280;63320;50.768;6.724;2024-02-21T00:43:33;100999.41;;;8.59;84.39
74794;BME280;63320;50.768;6.724;2024-02-21T00:45:58;101001.13;;;8.60;84.63
74794;BME280;63320;50.768;6.724;2024-02-21T00:48:23;101002.28;;;8.50;85.12
74794;BME280;63320;50.768;6.724;2024-02-21T00:50:49;100995.59;;;8.71;84.30
74794;BME280;63320;50.768;6.724;2024-02-21T00:53:16;100993.28;;;8.60;85.01
74794;BME280;63320;50.768;6.724;2024-02-21T00:55:41;100993.44;;;8.54;85.80
74794;BME280;63320;50.768;6.724;2024-02-21T00:58:06;100990.09;;;8.47;86.12
74794;BME280;63320;50.768;6.724;2024-02-21T01:00:32;100991.06;;;8.45;86.38
74794;BME280;63320;50.768;6.724;2024-02-21T01:02:57;100988.50;;;8.42;87.05
74794;BME280;63320;50.768;6.724;2024-02-21T01:05:22;100997.28;;;8.41;87.30
74794;BME280;63320;50.768;6.724;2024-02-21T01:07:48;100989.34;;;8.44;86.95
74794;BME280;63320;50.768;6.724;2024-02-21T01:10:15;100984.56;;;8.58;86.64
74794;BME280;63320;50.768;6.724;2024-02-21T01:12:40;100989.75;;;8.61;85.93
74794;BME280;63320;50.768;6.724;2024-02-21T01:15:06;100974.63;;;8.71;85.50
74794;BME280;63320;50.768;6.724;2024-02-21T01:17:31;100979.19;;;8.64;85.47
74794;BME280;63320;50.768;6.724;2024-02-21T01:19:57;100980.94;;;8.64;85.28
74794;BME280;63320;50.768;6.724;2024-02-21T01:22:22;100971.47;;;8.58;85.35
74794;BME280;63320;50.768;6.724;2024-02-21T01:24:47;100971.63;;;8.52;85.13
74794;BME280;63320;50.768;6.724;2024-02-21T01:27:14;100969.72;;;8.59;84.74
74794;BME280;63320;50.768;6.724;2024-02-21T01:29:40;100972.47;;;8.54;84.97
74794;BME280;63320;50.768;6.724;2024-02-21T01:32:05;100956.09;;;8.46;85.10
74794;BME280;63320;50.768;6.724;2024-02-21T01:34:31;100954.66;;;8.34;85.36
74794;BME280;63320;50.768;6.724;2024-02-21T01:36:56;100957.97;;;8.41;85.32
74794;BME280;63320;50.768;6.724;2024-02-21T01:39:22;100966.50;;;8.49;84.98
74794;BME280;63320;50.768;6.724;2024-02-21T01:41:47;100953.41;;;8.15;86.10
74794;BME280;63320;50.768;6.724;2024-02-21T01:44:14;100955.34;;;8.41;85.67
74794;BME280;63320;50.768;6.724;2024-02-21T01:46:39;100951.31;;;8.27;85.94
74794;BME280;63320;50.768;6.724;2024-02-21T01:49:05;100945.25;;;8.25;86.53
74794;BME280;63320;50.768;6.724;2024-02-21T01:51:31;100941.72;;;8.26;85.90
74794;BME280;63320;50.768;6.724;2024-02-21T01:53:57;100947.81;;;8.28;85.94
74794;BME280;63320;50.768;6.724;2024-02-21T01:56:23;100939.34;;;8.17;86.95
74794;BME280;63320;50.768;6.724;2024-02-21T01:58:49;100939.75;;;8.02;87.49
74794;BME280;63320;50.768;6.724;2024-02-21T02:01:17;100934.09;;;8.19;87.46
74794;BME280;63320;50.768;6.724;2024-02-21T02:03:45;100936.97;;;8.10;87.86
74794;BME280;63320;50.768;6.724;2024-02-21T02:06:10;100938.03;;;8.01;87.95
74794;BME280;63320;50.768;6.724;2024-02-21T02:08:36;100939.22;;;8.22;87.48
74794;BME280;63320;50.768;6.724;2024-02-21T02:11:02;100928.03;;;8.17;87.14
74794;BME280;63320;50.768;6.724;2024-02-21T02:13:27;100935.25;;;8.07;87.70
74794;BME280;63320;50.768;6.724;2024-02-21T02:15:53;100931.44;;;8.20;87.64
74794;BME280;63320;50.768;6.724;2024-02-21T02:18:20;100922.91;;;8.12;87.36
74794;BME280;63320;50.768;6.724;2024-02-21T02:20:45;100909.50;;;8.23;87.27
74794;BME280;63320;50.768;6.724;2024-02-21T02:23:18;100906.09;;;8.21;86.88
74794;BME280;63320;50.768;6.724;2024-02-21T02:25:44;100896.56;;;8.18;87.35
74794;BME280;63320;50.768;6.724;2024-02-21T02:28:10;100897.97;;;8.30;87.07
74794;BME280;63320;50.768;6.724;2024-02-21T02:30:36;100886.22;;;8.12;87.42
74794;BME280;63320;50.768;6.724;2024-02-21T02:33:01;100879.09;;;8.19;86.91
74794;BME280;63320;50.768;6.724;2024-02-21T02:35:27;100873.34;;;8.36;86.83
74794;BME280;63320;50.768;6.724;2024-02-21T02:37:52;100873.13;;;8.45;85.95
74794;BME280;63320;50.768;6.724;2024-02-21T02:40:19;100869.00;;;8.36;85.93
74794;BME280;63320;50.768;6.724;2024-02-21T02:42:44;100876.66;;;8.44;85.77
74794;BME280;63320;50.768;6.724;2024-02-21T02:45:10;100880.94;;;8.46;85.35
74794;BME280;63320;50.768;6.724;2024-02-21T02:47:35;100880.22;;;8.41;85.74
74794;BME280;63320;50.768;6.724;2024-02-21T02:50:01;100883.50;;;8.49;85.33
74794;BME280;63320;50.768;6.724;2024-02-21T02:52:26;100885.28;;;8.47;85.40
74794;BME280;63320;50.768;6.724;2024-02-21T02:54:51;100885.66;;;8.34;85.67
74794;BME280;63320;50.768;6.724;2024-02-21T02:57:18;100872.16;;;8.47;85.76
74794;BME280;63320;50.768;6.724;2024-02-21T02:59:47;100855.59;;;8.47;85.25
74794;BME280;63320;50.768;6.724;2024-02-21T03:02:12;100851.25;;;8.46;85.54
74794;BME280;63320;50.768;6.724;2024-02-21T03:04:39;100844.91;;;8.53;85.31
74794;BME280;63320;50.768;6.724;2024-02-21T03:07:06;100854.00;;;8.41;85.83
74794;BME280;63320;50.768;6.724;2024-02-21T03:09:31;100837.38;;;8.42;85.55
74794;BME280;63320;50.768;6.724;2024-02-21T03:11:57;100821.88;;;8.33;86.01
74794;BME280;63320;50.768;6.724;2024-02-21T03:14:23;100804.38;;;8.35;85.75
74794;BME280;63320;50.768;6.724;2024-02-21T03:16:51;100805.13;;;8.40;85.51
74794;BME280;63320;50.768;6.724;2024-02-21T03:19:16;100792.22;;;8.32;85.50
74794;BME280;63320;50.768;6.724;2024-02-21T03:21:42;100796.50;;;8.37;85.29
74794;BME280;63320;50.768;6.724;2024-02-21T03:24:07;100788.66;;;8.35;85.47
74794;BME280;63320;50.768;6.724;2024-02-21T03:26:32;100785.19;;;8.33;85.41
74794;BME280;63320;50.768;6.724;2024-02-21T03:28:58;100782.41;;;8.41;85.46
74794;BME280;63320;50.768;6.724;2024-02-21T03:31:24;100785.88;;;8.41;85.35
74794;BME280;63320;50.768;6.724;2024-02-21T03:33:50;100784.28;;;8.36;85.62
74794;BME280;63320;50.768;6.724;2024-02-21T03:36:15;100801.53;;;8.44;85.20
74794;BME280;63320;50.768;6.724;2024-02-21T03:38:41;100795.44;;;8.44;85.45
74794;BME280;63320;50.768;6.724;2024-02-21T03:41:06;100788.56;;;8.40;85.82
74794;BME280;63320;50.768;6.724;2024-02-21T03:43:31;100776.25;;;8.42;85.49
74794;BME280;63320;50.768;6.724;2024-02-21T03:45:57;100777.50;;;8.28;86.02
74794;BME280;63320;50.768;6.724;2024-02-21T03:48:23;100783.47;;;8.34;86.63
74794;BME280;63320;50.768;6.724;2024-02-21T03:50:49;100791.97;;;8.42;86.22
74794;BME280;63320;50.768;6.724;2024-02-21T03:53:15;100789.50;;;8.37;86.40
74794;BME280;63320;50.768;6.724;2024-02-21T03:55:40;100788.44;;;8.43;86.29
74794;BME280;63320;50.768;6.724;2024-02-21T03:58:06;100782.41;;;8.41;86.79
74794;BME280;63320;50.768;6.724;2024-02-21T04:00:31;100784.09;;;8.42;86.42
74794;BME280;63320;50.768;6.724;2024-02-21T04:02:56;100788.63;;;8.37;87.23
74794;BME280;63320;50.768;6.724;2024-02-21T04:05:23;100793.66;;;8.44;86.71
74794;BME280;63320;50.768;6.724;2024-02-21T04:07:49;100797.44;;;8.34;86.84
74794;BME280;63320;50.768;6.724;2024-02-21T04:10:14;100794.81;;;8.32;87.09
74794;BME280;63320;50.768;6.724;2024-02-21T04:12:39;100795.69;;;8.33;87.33
74794;BME280;63320;50.768;6.724;2024-02-21T04:15:05;100793.22;;;8.28;87.62
74794;BME280;63320;50.768;6.724;2024-02-21T04:17:31;100786.31;;;8.26;87.51
74794;BME280;63320;50.768;6.724;2024-02-21T04:20:03;100786.94;;;8.34;86.76
74794;BME280;63320;50.768;6.724;2024-02-21T04:22:30;100778.16;;;8.37;86.65
74794;BME280;63320;50.768;6.724;2024-02-21T04:24:56;100777.50;;;8.28;86.95
74794;BME280;63320;50.768;6.724;2024-02-21T04:27:21;100770.44;;;8.30;86.77
74794;BME280;63320;50.768;6.724;2024-02-21T04:29:47;100759.16;;;8.28;86.62
74794;BME280;63320;50.768;6.724;2024-02-21T04:32:13;100763.28;;;8.37;86.27
74794;BME280;63320;50.768;6.724;2024-02-21T04:34:40;100758.91;;;8.38;86.06
74794;BME280;63320;50.768;6.724;2024-02-21T04:37:06;100764.00;;;8.42;85.94
74794;BME280;63320;50.768;6.724;2024-02-21T04:39:33;100760.44;;;8.45;86.02
74794;BME280;63320;50.768;6.724;2024-02-21T04:41:58;100762.50;;;8.34;86.26
74794;BME280;63320;50.768;6.724;2024-02-21T04:44:23;100752.19;;;8.27;86.28
74794;BME280;63320;50.768;6.724;2024-02-21T04:46:49;100759.13;;;8.30;86.26
74794;BME280;63320;50.768;6.724;2024-02-21T04:49:14;100757.28;;;8.32;86.51
74794;BME280;63320;50.768;6.724;2024-02-21T04:51:41;100756.50;;;8.30;86.54
74794;BME280;63320;50.768;6.724;2024-02-21T04:54:06;100761.63;;;8.33;86.60
74794;BME280;63320;50.768;6.724;2024-02-21T04:56:34;100761.34;;;8.44;86.41
74794;BME280;63320;50.768;6.724;2024-02-21T04:58:59;100753.44;;;8.45;86.05
74794;BME280;63320;50.768;6.724;2024-02-21T05:01:25;100753.38;;;8.47;85.96
74794;BME280;63320;50.768;6.724;2024-02-21T05:03:50;100752.59;;;8.45;85.94
74794;BME280;63320;50.768;6.724;2024-02-21T05:06:16;100755.50;;;8.34;86.17
74794;BME280;63320;50.768;6.724;2024-02-21T05:08:41;100751.88;;;8.38;85.98
74794;BME280;63320;50.768;6.724;2024-02-21T05:11:06;100747.63;;;8.34;85.96
74794;BME280;63320;50.768;6.724;2024-02-21T05:13:33;100743.19;;;8.38;85.73
74794;BME280;63320;50.768;6.724;2024-02-21T05:15:59;100743.22;;;8.36;85.61
74794;BME280;63320;50.768;6.724;2024-02-21T05:18:24;100744.19;;;8.32;86.12
74794;BME280;63320;50.768;6.724;2024-02-21T05:20:49;100742.34;;;8.36;85.82
74794;BME280;63320;50.768;6.724;2024-02-21T05:23:15;100745.88;;;8.35;85.55
74794;BME280;63320;50.768;6.724;2024-02-21T05:25:40;100734.25;;;8.43;85.66
74794;BME280;63320;50.768;6.724;2024-02-21T05:28:06;100737.09;;;8.37;85.59
74794;BME280;63320;50.768;6.724;2024-02-21T05:30:35;100728.16;;;8.43;85.90
74794;BME280;63320;50.768;6.724;2024-02-21T05:33:04;100733.41;;;8.43;86.01
74794;BME280;63320;50.768;6.724;2024-02-21T05:35:29;100721.13;;;8.45;85.93
74794;BME280;63320;50.768;6.724;2024-02-21T05:37:55;100724.06;;;8.34;86.33
74794;BME280;63320;50.768;6.724;2024-02-21T05:40:20;100716.81;;;8.44;85.85
74794;BME280;63320;50.768;6.724;2024-02-21T05:42:45;100720.31;;;8.43;85.75
74794;BME280;63320;50.768;6.724;2024-02-21T05:45:11;100719.31;;;8.47;85.35
74794;BME280;63320;50.768;6.724;2024-02-21T05:47:38;100728.66;;;8.55;85.38
74794;BME280;63320;50.768;6.724;2024-02-21T05:50:04;100725.06;;;8.58;85.38
74794;BME280;63320;50.768;6.724;2024-02-21T05:52:29;100721.00;;;8.49;85.73
74794;BME280;63320;50.768;6.724;2024-02-21T05:54:55;100718.47;;;8.46;85.64
74794;BME280;63320;50.768;6.724;2024-02-21T05:57:20;100728.09;;;8.46;85.61
74794;BME280;63320;50.768;6.724;2024-02-21T05:59:46;100728.16;;;8.43;85.81
74794;BME280;63320;50.768;6.724;2024-02-21T06:02:11;100713.06;;;8.51;85.92
74794;BME280;63320;50.768;6.724;2024-02-21T06:04:38;100709.81;;;8.43;85.96
74794;BME280;63320;50.768;6.724;2024-02-21T06:07:03;100709.19;;;8.35;85.97
74794;BME280;63320;50.768;6.724;2024-02-21T06:09:29;100708.03;;;8.45;85.76
74794;BME280;63320;50.768;6.724;2024-02-21T06:11:54;100698.47;;;8.44;85.49
74794;BME280;63320;50.768;6.724;2024-02-21T06:14:19;100707.88;;;8.49;86.03
74794;BME280;63320;50.768;6.724;2024-02-21T06:16:45;100703.88;;;8.38;86.86
74794;BME280;63320;50.768;6.724;2024-02-21T06:19:10;100709.22;;;8.33;86.85
74794;BME280;63320;50.768;6.724;2024-02-21T06:21:37;100708.22;;;8.09;88.53
74794;BME280;63320;50.768;6.724;2024-02-21T06:24:03;100705.03;;;8.27;88.50
74794;BME280;63320;50.768;6.724;2024-02-21T06:26:28;100709.75;;;8.46;87.41
74794;BME280;63320;50.768;6.724;2024-02-21T06:28:54;100707.91;;;8.48;87.24
74794;BME280;63320;50.768;6.724;2024-02-21T06:31:19;100693.78;;;8.53;86.92
74794;BME280;63320;50.768;6.724;2024-02-21T06:33:44;100691.91;;;8.57;86.42
74794;BME280;63320;50.768;6.724;2024-02-21T06:36:10;100696.44;;;8.52;86.69
74794;BME280;63320;50.768;6.724;2024-02-21T06:38:37;100694.66;;;8.52;86.83
74794;BME280;63320;50.768;6.724;2024-02-21T06:41:02;100688.47;;;8.55;87.11
74794;BME280;63320;50.768;6.724;2024-02-21T06:43:28;100688.69;;;8.49;87.48
74794;BME280;63320;50.768;6.724;2024-02-21T06:45:53;100679.00;;;8.51;87.41
74794;BME280;63320;50.768;6.724;2024-02-21T06:48:19;100685.94;;;8.53;87.16
74794;BME280;63320;50.768;6.724;2024-02-21T06:50:44;100686.22;;;8.44;87.22
74794;BME280;63320;50.768;6.724;2024-02-21T06:53:09;100679.22;;;8.45;87.23
74794;BME280;63320;50.768;6.724;2024-02-21T06:55:36;100680.13;;;8.44;87.29
74794;BME280;63320;50.768;6.724;2024-02-21T06:58:02;100674.75;;;8.47;87.64
74794;BME280;63320;50.768;6.724;2024-02-21T07:00:27;100683.47;;;8.47;87.63
74794;BME280;63320;50.768;6.724;2024-02-21T07:02:53;100674.69;;;8.50;87.74
74794;BME280;63320;50.768;6.724;2024-02-21T07:05:18;100666.91;;;8.47;88.10
74794;BME280;63320;50.768;6.724;2024-02-21T07:07:43;100672.34;;;8.41;87.73
74794;BME280;63320;50.768;6.724;2024-02-21T07:10:09;100662.63;;;8.44;87.78
74794;BME280;63320;50.768;6.724;2024-02-21T07:12:36;100670.75;;;8.35;87.48
74794;BME280;63320;50.768;6.724;2024-02-21T07:15:02;100658.31;;;8.42;87.44
74794;BME280;63320;50.768;6.724;2024-02-21T07:17:27;100662.97;;;8.32;87.08
74794;BME280;63320;50.768;6.724;2024-02-21T07:19:53;100663.94;;;8.29;87.20
74794;BME280;63320;50.768;6.724;2024-02-21T07:22:18;100660.31;;;8.34;87.05
74794;BME280;63320;50.768;6.724;2024-02-21T07:24:43;100661.81;;;8.42;86.69
74794;BME280;63320;50.768;6.724;2024-02-21T07:27:09;100668.59;;;8.48;86.29
74794;BME280;63320;50.768;6.724;2024-02-21T07:29:36;100664.47;;;8.41;86.34
74794;BME280;63320;50.768;6.724;2024-02-21T07:32:02;100663.63;;;8.40;86.52
74794;BME280;63320;50.768;6.724;2024-02-21T07:34:27;100661.09;;;8.37;86.36
74794;BME280;63320;50.768;6.724;2024-02-21T07:36:53;100657.25;;;8.49;85.65
74794;BME280;63320;50.768;6.724;2024-02-21T07:39:18;100665.97;;;8.48;86.07
74794;BME280;63320;50.768;6.724;2024-02-21T07:41:43;100661.63;;;8.48;86.82
74794;BME280;63320;50.768;6.724;2024-02-21T07:44:09;100651.16;;;8.48;85.57
74794;BME280;63320;50.768;6.724;2024-02-21T07:46:35;100652.78;;;8.51;85.27
74794;BME280;63320;50.768;6.724;2024-02-21T07:49:01;100657.81;;;8.57;85.58
74794;BME280;63320;50.768;6.724;2024-02-21T07:51:27;100661.41;;;8.54;85.17
74794;BME280;63320;50.768;6.724;2024-02-21T07:53:53;100660.59;;;8.52;84.96
74794;BME280;63320;50.768;6.724;2024-02-21T07:56:18;100657.31;;;8.46;85.17
74794;BME280;63320;50.768;6.724;2024-02-21T07:58:43;100651.19;;;8.47;85.41
74794;BME280;63320;50.768;6.724;2024-02-21T08:01:10;100642.31;;;8.51;84.95
74794;BME280;63320;50.768;6.724;2024-02-21T08:03:37;100645.03;;;8.48;85.50
74794;BME280;63320;50.768;6.724;2024-02-21T08:06:03;100645.72;;;8.53;84.99
74794;BME280;63320;50.768;6.724;2024-02-21T08:08:29;100636.28;;;8.49;85.22
74794;BME280;63320;50.768;6.724;2024-02-21T08:10:54;100635.94;;;8.58;84.49
74794;BME280;63320;50.768;6.724;2024-02-21T08:13:20;100629.81;;;8.59;84.39
74794;BME280;63320;50.768;6.724;2024-02-21T08:15:45;100630.75;;;8.56;83.99
74794;BME280;63320;50.768;6.724;2024-02-21T08:18:11;100632.69;;;8.51;83.10
74794;BME280;63320;50.768;6.724;2024-02-21T08:20:37;100630.91;;;8.52;83.00
74794;BME280;63320;50.768;6.724;2024-02-21T08:23:03;100628.88;;;8.34;80.83
74794;BME280;63320;50.768;6.724;2024-02-21T08:25:28;100622.50;;;8.42;80.26
74794;BME280;63320;50.768;6.724;2024-02-21T08:27:58;100617.50;;;8.33;78.34
74794;BME280;63320;50.768;6.724;2024-02-21T08:30:24;100601.78;;;8.33;78.67
74794;BME280;63320;50.768;6.724;2024-02-21T08:32:49;100596.63;;;8.31;78.29
74794;BME280;63320;50.768;6.724;2024-02-21T08:35:15;100594.81;;;8.34;78.67
74794;BME280;63320;50.768;6.724;2024-02-21T08:37:42;100583.16;;;8.44;78.41
74794;BME280;63320;50.768;6.724;2024-02-21T08:40:08;100590.13;;;8.43;78.06
74794;BME280;63320;50.768;6.724;2024-02-21T08:42:34;100582.94;;;8.50;78.42
74794;BME280;63320;50.768;6.724;2024-02-21T08:44:59;100561.38;;;8.42;78.51
74794;BME280;63320;50.768;6.724;2024-02-21T08:47:24;100563.59;;;8.54;78.35
74794;BME280;63320;50.768;6.724;2024-02-21T08:49:50;100551.88;;;8.64;78.53
74794;BME280;63320;50.768;6.724;2024-02-21T08:52:15;100558.44;;;8.76;78.45
74794;BME280;63320;50.768;6.724;2024-02-21T08:54:42;100553.91;;;8.81;78.62
74794;BME280;63320;50.768;6.724;2024-02-21T08:57:07;100548.03;;;8.74;78.64
74794;BME280;63320;50.768;6.724;2024-02-21T08:59:33;100535.38;;;8.86;78.54
74794;BME280;63320;50.768;6.724;2024-02-21T09:01:58;100524.97;;;8.84;78.21
74794;BME280;63320;50.768;6.724;2024-02-21T09:04:23;100530.19;;;8.84;77.47
74794;BME280;63320;50.768;6.724;2024-02-21T09:06:49;100527.53;;;8.86;77.23
74794;BME280;63320;50.768;6.724;2024-02-21T09:09:14;100522.38;;;8.82;77.15
74794;BME280;63320;50.768;6.724;2024-02-21T09:11:41;100524.09;;;8.84;77.07
74794;BME280;63320;50.768;6.724;2024-02-21T09:14:06;100516.81;;;8.92;77.40
74794;BME280;63320;50.768;6.724;2024-02-21T09:16:32;100512.47;;;8.91;77.27
74794;BME280;63320;50.768;6.724;2024-02-21T09:18:58;100514.31;;;8.89;76.52
74794;BME280;63320;50.768;6.724;2024-02-21T09:21:23;100509.22;;;8.84;76.45
74794;BME280;63320;50.768;6.724;2024-02-21T09:23:48;100503.44;;;8.98;76.60
74794;BME280;63320;50.768;6.724;2024-02-21T09:26:14;100494.56;;;9.02;76.08
74794;BME280;63320;50.768;6.724;2024-02-21T09:28:41;100498.09;;;9.01;75.91
74794;BME280;63320;50.768;6.724;2024-02-21T09:31:06;100491.00;;;9.04;75.73
74794;BME280;63320;50.768;6.724;2024-02-21T09:33:31;100483.16;;;9.03;75.50
74794;BME280;63320;50.768;6.724;2024-02-21T09:35:57;100473.50;;;9.03;75.60
74794;BME280;63320;50.768;6.724;2024-02-21T09:38:22;100471.53;;;9.10;74.96
74794;BME280;63320;50.768;6.724;2024-02-21T09:40:53;100464.41;;;9.14;75.11
74794;BME280;63320;50.768;6.724;2024-02-21T09:43:23;100457.44;;;9.13;75.20
74794;BME280;63320;50.768;6.724;2024-02-21T09:45:52;100447.13;;;9.08;74.63
74794;BME280;63320;50.768;6.724;2024-02-21T09:48:27;100449.63;;;9.11;74.59
74794;BME280;63320;50.768;6.724;2024-02-21T09:50:57;100442.44;;;9.16;74.87
74794;BME280;63320;50.768;6.724;2024-02-21T09:53:24;100439.56;;;9.22;74.53
74794;BME280;63320;50.768;6.724;2024-02-21T09:55:50;100438.66;;;9.23;74.49
74794;BME280;63320;50.768;6.724;2024-02-21T09:58:15;100439.63;;;9.21;74.16
74794;BME280;63320;50.768;6.724;2024-02-21T10:00:41;100440.59;;;9.18;73.82
74794;BME280;63320;50.768;6.724;2024-02-21T10:03:08;100436.34;;;9.16;73.46
74794;BME280;63320;50.768;6.724;2024-02-21T10:05:34;100450.97;;;9.21;73.27
74794;BME280;63320;50.768;6.724;2024-02-21T10:07:59;100446.66;;;9.20;73.30
74794;BME280;63320;50.768;6.724;2024-02-21T10:10:25;100447.41;;;9.24;73.55
74794;BME280;63320;50.768;6.724;2024-02-21T10:12:50;100447.56;;;9.19;73.31
74794;BME280;63320;50.768;6.724;2024-02-21T10:15:20;100448.13;;;9.27;73.30
74794;BME280;63320;50.768;6.724;2024-02-21T10:17:45;100443.00;;;9.24;73.50
74794;BME280;63320;50.768;6.724;2024-02-21T10:20:13;100435.81;;;9.29;73.42
74794;BME280;63320;50.768;6.724;2024-02-21T10:22:39;100433.91;;;9.33;73.03
74794;BME280;63320;50.768;6.724;2024-02-21T10:25:07;100431.22;;;9.34;72.99
74794;BME280;63320;50.768;6.724;2024-02-21T10:27:32;100425.16;;;9.32;72.85
74794;BME280;63320;50.768;6.724;2024-02-21T10:29:58;100425.00;;;9.37;73.02
74794;BME280;63320;50.768;6.724;2024-02-21T10:32:23;100422.38;;;9.37;73.12
74794;BME280;63320;50.768;6.724;2024-02-21T10:34:49;100418.59;;;9.44;73.15
74794;BME280;63320;50.768;6.724;2024-02-21T10:37:16;100424.56;;;9.48;73.04
74794;BME280;63320;50.768;6.724;2024-02-21T10:39:42;100422.84;;;9.47;73.16
74794;BME280;63320;50.768;6.724;2024-02-21T10:42:10;100418.28;;;9.52;73.65
74794;BME280;63320;50.768;6.724;2024-02-21T10:44:38;100410.22;;;9.56;73.60
74794;BME280;63320;50.768;6.724;2024-02-21T10:47:07;100406.56;;;9.60;73.17
74794;BME280;63320;50.768;6.724;2024-02-21T10:49:38;100390.72;;;9.62;73.14
74794;BME280;63320;50.768;6.724;2024-02-21T10:52:10;100388.91;;;9.64;73.32
74794;BME280;63320;50.768;6.724;2024-02-21T10:54:44;100391.53;;;9.64;73.12
74794;BME280;63320;50.768;6.724;2024-02-21T10:57:12;100388.56;;;9.72;73.26
74794;BME280;63320;50.768;6.724;2024-02-21T10:59:39;100390.63;;;9.65;73.13
74794;BME280;63320;50.768;6.724;2024-02-21T11:02:04;100376.38;;;9.71;73.46
74794;BME280;63320;50.768;6.724;2024-02-21T11:04:30;100363.16;;;9.72;73.15
74794;BME280;63320;50.768;6.724;2024-02-21T11:06:57;100351.81;;;9.72;73.42
74794;BME280;63320;50.768;6.724;2024-02-21T11:09:29;100341.84;;;9.80;73.42
74794;BME280;63320;50.768;6.724;2024-02-21T11:11:56;100334.81;;;9.80;73.39
74794;BME280;63320;50.768;6.724;2024-02-21T11:14:22;100330.63;;;9.76;73.87
74794;BME280;63320;50.768;6.724;2024-02-21T11:16:47;100316.63;;;9.76;73.26
74794;BME280;63320;50.768;6.724;2024-02-21T11:19:19;100305.84;;;9.82;73.80
74794;BME280;63320;50.768;6.724;2024-02-21T11:21:45;100303.31;;;9.80;73.28
74794;BME280;63320;50.768;6.724;2024-02-21T11:24:10;100297.06;;;9.83;73.45
74794;BME280;63320;50.768;6.724;2024-02-21T11:26:37;100292.53;;;9.86;73.55
74794;BME280;63320;50.768;6.724;2024-02-21T11:29:04;100280.31;;;9.85;73.39
74794;BME280;63320;50.768;6.724;2024-02-21T11:31:38;100259.31;;;9.85;72.70
74794;BME280;63320;50.768;6.724;2024-02-21T11:34:04;100259.97;;;9.91;73.45
74794;BME280;63320;50.768;6.724;2024-02-21T11:36:29;100254.63;;;9.92;73.18
74794;BME280;63320;50.768;6.724;2024-02-21T11:39:03;100235.28;;;9.95;73.44
74794;BME280;63320;50.768;6.724;2024-02-21T11:41:28;100235.53;;;9.89;73.20
74794;BME280;63320;50.768;6.724;2024-02-21T11:43:54;100213.31;;;9.96;72.47
74794;BME280;63320;50.768;6.724;2024-02-21T11:46:20;100216.72;;;9.98;73.13
74794;BME280;63320;50.768;6.724;2024-02-21T11:48:46;100213.03;;;10.02;72.56
74794;BME280;63320;50.768;6.724;2024-02-21T11:51:21;100206.38;;;9.95;72.38
74794;BME280;63320;50.768;6.724;2024-02-21T11:53:46;100201.88;;;9.97;72.03
74794;BME280;63320;50.768;6.724;2024-02-21T11:56:13;100194.00;;;9.97;72.48
74794;BME280;63320;50.768;6.724;2024-02-21T11:58:39;100192.94;;;10.01;72.79
74794;BME280;63320;50.768;6.724;2024-02-21T12:01:04;100186.47;;;10.08;72.98
74794;BME280;63320;50.768;6.724;2024-02-21T12:03:31;100169.31;;;10.01;72.67
74794;BME280;63320;50.768;6.724;2024-02-21T12:05:57;100161.00;;;10.10;73.50
74794;BME280;63320;50.768;6.724;2024-02-21T12:08:22;100157.59;;;10.08;73.09
74794;BME280;63320;50.768;6.724;2024-02-21T12:10:48;100162.78;;;10.09;73.25
74794;BME280;63320;50.768;6.724;2024-02-21T12:13:13;100152.41;;;10.06;73.31
74794;BME280;63320;50.768;6.724;2024-02-21T12:15:39;100154.03;;;10.09;73.49
74794;BME280;63320;50.768;6.724;2024-02-21T12:18:04;100149.56;;;10.11;73.73
74794;BME280;63320;50.768;6.724;2024-02-21T12:20:31;100127.84;;;10.07;73.06
74794;BME280;63320;50.768;6.724;2024-02-21T12:23:00;100125.06;;;10.10;73.08
74794;BME280;63320;50.768;6.724;2024-02-21T12:25:25;100105.84;;;10.10;72.38
74794;BME280;63320;50.768;6.724;2024-02-21T12:27:50;100110.16;;;10.11;71.68
74794;BME280;63320;50.768;6.724;2024-02-21T12:30:16;100079.81;;;10.23;71.67
74794;BME280;63320;50.768;6.724;2024-02-21T12:32:41;100071.28;;;10.18;72.10
74794;BME280;63320;50.768;6.724;2024-02-21T12:35:07;100046.72;;;10.19;71.49
74794;BME280;63320;50.768;6.724;2024-02-21T12:37:34;100029.13;;;10.21;71.12
74794;BME280;63320;50.768;6.724;2024-02-21T12:40:00;100030.72;;;10.23;70.40
74794;BME280;63320;50.768;6.724;2024-02-21T12:42:25;100024.44;;;10.27;70.98
74794;BME280;63320;50.768;6.724;2024-02-21T12:44:51;100028.19;;;10.39;71.59
74794;BME280;63320;50.768;6.724;2024-02-21T12:47:16;99993.75;;;10.28;69.71
74794;BME280;63320;50.768;6.724;2024-02-21T12:49:41;99978.53;;;10.34;70.29
74794;BME280;63320;50.768;6.724;2024-02-21T12:52:07;99963.22;;;10.25;70.05
74794;BME280;63320;50.768;6.724;2024-02-21T12:54:34;99929.06;;;10.25;71.65